Terminal Aerodrome Forecast
Issued by NWS

Home | Current Version | Previous Version | Text Only | Print | Product List | Glossary On
Versions: 1 2 3 4 5 6 7 8 9 10 11 12 13 14 15 16 17 18
292
FTUS45 KFGZ 292344
TAFGCN
TAF
KGCN 292344Z 3000/3024 VRB06KT P6SM BKN110
      TEMPO 3000/3001 VRB10G20KT -SHRA BKN045
     FM300100 VRB05KT P6SM SCT110 BKN200
     FM301800 22008KT P6SM SCT090 BKN110
      TEMPO 3020/3024 VRB10G20KT -TSRA BKN090CB=

USA.gov is the U.S. government's official web portal to all federal, state and local government web resources and services.